sensor_id;sensor_type;location;lat;lon;timestamp;P1;durP1;ratioP1;P2;durP2;ratioP2
15295;SDS011;7749;49.964;7.890;2023-07-02T00:01:29;5.73;;;2.13;;
15295;SDS011;7749;49.964;7.890;2023-07-02T00:03:56;2.93;;;1.60;;
15295;SDS011;7749;49.964;7.890;2023-07-02T00:06:24;2.70;;;1.73;;
15295;SDS011;7749;49.964;7.890;2023-07-02T00:08:52;3.30;;;1.60;;
15295;SDS011;7749;49.964;7.890;2023-07-02T00:11:19;4.53;;;1.70;;
15295;SDS011;7749;49.964;7.890;2023-07-02T00:13:47;2.97;;;1.90;;
15295;SDS011;7749;49.964;7.890;2023-07-02T00:16:14;2.17;;;1.57;;
15295;SDS011;7749;49.964;7.890;2023-07-02T00:18:42;4.30;;;1.90;;
15295;SDS011;7749;49.964;7.890;2023-07-02T00:21:09;2.13;;;1.70;;
15295;SDS011;7749;49.964;7.890;2023-07-02T00:23:40;2.10;;;1.70;;
15295;SDS011;7749;49.964;7.890;2023-07-02T00:26:07;3.77;;;1.87;;
15295;SDS011;7749;49.964;7.890;2023-07-02T00:28:35;3.53;;;2.13;;
15295;SDS011;7749;49.964;7.890;2023-07-02T00:31:02;3.10;;;1.77;;
15295;SDS011;7749;49.964;7.890;2023-07-02T00:33:31;3.33;;;2.07;;
15295;SDS011;7749;49.964;7.890;2023-07-02T00:35:58;3.20;;;2.10;;
15295;SDS011;7749;49.964;7.890;2023-07-02T00:38:27;4.23;;;2.03;;
15295;SDS011;7749;49.964;7.890;2023-07-02T00:40:55;2.90;;;2.13;;
15295;SDS011;7749;49.964;7.890;2023-07-02T00:43:22;4.77;;;2.00;;
15295;SDS011;7749;49.964;7.890;2023-07-02T00:45:50;4.20;;;2.27;;
15295;SDS011;7749;49.964;7.890;2023-07-02T00:48:18;3.90;;;2.10;;
15295;SDS011;7749;49.964;7.890;2023-07-02T00:50:45;3.10;;;1.67;;
15295;SDS011;7749;49.964;7.890;2023-07-02T00:53:13;4.47;;;2.10;;
15295;SDS011;7749;49.964;7.890;2023-07-02T00:55:41;2.77;;;1.93;;
15295;SDS011;7749;49.964;7.890;2023-07-02T00:58:08;3.37;;;2.33;;
15295;SDS011;7749;49.964;7.890;2023-07-02T01:00:36;3.80;;;2.20;;
15295;SDS011;7749;49.964;7.890;2023-07-02T01:03:06;4.27;;;1.83;;
15295;SDS011;7749;49.964;7.890;2023-07-02T01:05:33;4.93;;;2.27;;
15295;SDS011;7749;49.964;7.890;2023-07-02T01:08:04;4.20;;;2.13;;
15295;SDS011;7749;49.964;7.890;2023-07-02T01:10:32;4.67;;;2.47;;
15295;SDS011;7749;49.964;7.890;2023-07-02T01:13:05;5.20;;;2.67;;
15295;SDS011;7749;49.964;7.890;2023-07-02T01:15:41;6.40;;;2.93;;
15295;SDS011;7749;49.964;7.890;2023-07-02T01:18:11;4.07;;;2.50;;
15295;SDS011;7749;49.964;7.890;2023-07-02T01:20:41;3.87;;;2.40;;
15295;SDS011;7749;49.964;7.890;2023-07-02T01:23:09;4.37;;;2.20;;
15295;SDS011;7749;49.964;7.890;2023-07-02T01:25:37;6.43;;;2.80;;
15295;SDS011;7749;49.964;7.890;2023-07-02T01:28:04;3.57;;;2.60;;
15295;SDS011;7749;49.964;7.890;2023-07-02T01:30:32;5.43;;;2.60;;
15295;SDS011;7749;49.964;7.890;2023-07-02T01:32:59;6.37;;;2.90;;
15295;SDS011;7749;49.964;7.890;2023-07-02T01:35:26;6.00;;;2.70;;
15295;SDS011;7749;49.964;7.890;2023-07-02T01:37:54;5.87;;;3.10;;
15295;SDS011;7749;49.964;7.890;2023-07-02T01:40:21;6.37;;;2.70;;
15295;SDS011;7749;49.964;7.890;2023-07-02T01:42:49;5.03;;;2.73;;
15295;SDS011;7749;49.964;7.890;2023-07-02T01:45:16;5.53;;;3.10;;
15295;SDS011;7749;49.964;7.890;2023-07-02T01:47:44;4.73;;;3.10;;
15295;SDS011;7749;49.964;7.890;2023-07-02T01:50:11;7.67;;;3.07;;
15295;SDS011;7749;49.964;7.890;2023-07-02T01:52:38;4.90;;;3.00;;
15295;SDS011;7749;49.964;7.890;2023-07-02T01:55:06;6.73;;;3.20;;
15295;SDS011;7749;49.964;7.890;2023-07-02T01:57:34;6.13;;;3.00;;
15295;SDS011;7749;49.964;7.890;2023-07-02T02:00:01;4.60;;;3.17;;
15295;SDS011;7749;49.964;7.890;2023-07-02T02:02:29;6.57;;;3.23;;
15295;SDS011;7749;49.964;7.890;2023-07-02T02:04:57;4.87;;;3.63;;
15295;SDS011;7749;49.964;7.890;2023-07-02T02:07:25;8.10;;;3.70;;
15295;SDS011;7749;49.964;7.890;2023-07-02T02:09:53;5.37;;;3.40;;
15295;SDS011;7749;49.964;7.890;2023-07-02T02:12:20;5.43;;;3.27;;
15295;SDS011;7749;49.964;7.890;2023-07-02T02:14:47;7.57;;;4.00;;
15295;SDS011;7749;49.964;7.890;2023-07-02T02:17:15;6.13;;;3.97;;
15295;SDS011;7749;49.964;7.890;2023-07-02T02:19:42;7.23;;;3.87;;
15295;SDS011;7749;49.964;7.890;2023-07-02T02:22:10;6.30;;;4.10;;
15295;SDS011;7749;49.964;7.890;2023-07-02T02:24:37;7.50;;;3.90;;
15295;SDS011;7749;49.964;7.890;2023-07-02T02:27:05;7.43;;;4.50;;
15295;SDS011;7749;49.964;7.890;2023-07-02T02:29:32;9.17;;;4.83;;
15295;SDS011;7749;49.964;7.890;2023-07-02T02:31:59;8.17;;;4.70;;
15295;SDS011;7749;49.964;7.890;2023-07-02T02:34:27;10.33;;;5.33;;
15295;SDS011;7749;49.964;7.890;2023-07-02T02:36:56;9.93;;;5.30;;
15295;SDS011;7749;49.964;7.890;2023-07-02T02:39:23;7.93;;;5.10;;
15295;SDS011;7749;49.964;7.890;2023-07-02T02:41:51;9.27;;;4.60;;
15295;SDS011;7749;49.964;7.890;2023-07-02T02:44:18;10.40;;;6.07;;
15295;SDS011;7749;49.964;7.890;2023-07-02T02:46:45;9.47;;;5.47;;
15295;SDS011;7749;49.964;7.890;2023-07-02T02:49:13;8.83;;;5.80;;
15295;SDS011;7749;49.964;7.890;2023-07-02T02:51:40;13.17;;;5.67;;
15295;SDS011;7749;49.964;7.890;2023-07-02T02:54:08;7.90;;;5.50;;
15295;SDS011;7749;49.964;7.890;2023-07-02T02:56:35;10.23;;;5.70;;
15295;SDS011;7749;49.964;7.890;2023-07-02T02:59:02;7.33;;;5.30;;
15295;SDS011;7749;49.964;7.890;2023-07-02T03:01:30;8.73;;;5.33;;
15295;SDS011;7749;49.964;7.890;2023-07-02T03:03:58;11.10;;;6.00;;
15295;SDS011;7749;49.964;7.890;2023-07-02T03:06:26;10.87;;;6.57;;
15295;SDS011;7749;49.964;7.890;2023-07-02T03:08:54;10.73;;;6.73;;
15295;SDS011;7749;49.964;7.890;2023-07-02T03:11:21;9.37;;;6.30;;
15295;SDS011;7749;49.964;7.890;2023-07-02T03:13:49;11.07;;;7.30;;
15295;SDS011;7749;49.964;7.890;2023-07-02T03:16:16;11.97;;;6.43;;
15295;SDS011;7749;49.964;7.890;2023-07-02T03:18:44;10.87;;;6.20;;
15295;SDS011;7749;49.964;7.890;2023-07-02T03:21:12;11.27;;;7.00;;
15295;SDS011;7749;49.964;7.890;2023-07-02T03:23:39;11.33;;;6.70;;
15295;SDS011;7749;49.964;7.890;2023-07-02T03:26:06;9.47;;;6.53;;
15295;SDS011;7749;49.964;7.890;2023-07-02T03:28:34;12.27;;;6.70;;
15295;SDS011;7749;49.964;7.890;2023-07-02T03:31:02;11.37;;;6.37;;
15295;SDS011;7749;49.964;7.890;2023-07-02T03:33:29;12.77;;;6.27;;
15295;SDS011;7749;49.964;7.890;2023-07-02T03:35:58;12.03;;;6.17;;
15295;SDS011;7749;49.964;7.890;2023-07-02T03:38:26;12.10;;;6.77;;
15295;SDS011;7749;49.964;7.890;2023-07-02T03:40:53;10.67;;;6.20;;
15295;SDS011;7749;49.964;7.890;2023-07-02T03:43:20;9.83;;;5.70;;
15295;SDS011;7749;49.964;7.890;2023-07-02T03:45:48;9.33;;;6.77;;
15295;SDS011;7749;49.964;7.890;2023-07-02T03:48:15;10.77;;;6.03;;
15295;SDS011;7749;49.964;7.890;2023-07-02T03:50:43;11.03;;;6.30;;
15295;SDS011;7749;49.964;7.890;2023-07-02T03:53:10;10.43;;;6.60;;
15295;SDS011;7749;49.964;7.890;2023-07-02T03:55:38;13.13;;;7.43;;
15295;SDS011;7749;49.964;7.890;2023-07-02T03:58:06;10.80;;;7.00;;
15295;SDS011;7749;49.964;7.890;2023-07-02T04:00:33;9.17;;;6.60;;
15295;SDS011;7749;49.964;7.890;2023-07-02T04:03:01;11.53;;;7.93;;
15295;SDS011;7749;49.964;7.890;2023-07-02T04:05:31;10.93;;;6.23;;
15295;SDS011;7749;49.964;7.890;2023-07-02T04:07:59;10.20;;;6.63;;
15295;SDS011;7749;49.964;7.890;2023-07-02T04:10:26;10.90;;;6.60;;
15295;SDS011;7749;49.964;7.890;2023-07-02T04:12:54;12.00;;;6.60;;
15295;SDS011;7749;49.964;7.890;2023-07-02T04:15:21;11.97;;;6.63;;
15295;SDS011;7749;49.964;7.890;2023-07-02T04:17:51;9.27;;;5.63;;
15295;SDS011;7749;49.964;7.890;2023-07-02T04:20:21;10.37;;;6.23;;
15295;SDS011;7749;49.964;7.890;2023-07-02T04:22:48;11.10;;;6.27;;
15295;SDS011;7749;49.964;7.890;2023-07-02T04:25:16;9.80;;;7.00;;
15295;SDS011;7749;49.964;7.890;2023-07-02T04:28:03;13.57;;;6.47;;
15295;SDS011;7749;49.964;7.890;2023-07-02T04:30:31;9.67;;;6.27;;
15295;SDS011;7749;49.964;7.890;2023-07-02T04:32:58;8.33;;;6.17;;
15295;SDS011;7749;49.964;7.890;2023-07-02T04:35:26;9.37;;;6.47;;
15295;SDS011;7749;49.964;7.890;2023-07-02T04:37:53;9.20;;;6.30;;
15295;SDS011;7749;49.964;7.890;2023-07-02T04:40:21;12.17;;;6.57;;
15295;SDS011;7749;49.964;7.890;2023-07-02T04:42:48;10.23;;;6.30;;
15295;SDS011;7749;49.964;7.890;2023-07-02T04:45:25;8.50;;;6.10;;
15295;SDS011;7749;49.964;7.890;2023-07-02T04:47:53;11.27;;;6.67;;
15295;SDS011;7749;49.964;7.890;2023-07-02T04:50:21;10.00;;;6.37;;
15295;SDS011;7749;49.964;7.890;2023-07-02T04:52:48;9.67;;;6.57;;
15295;SDS011;7749;49.964;7.890;2023-07-02T04:55:16;9.90;;;6.30;;
15295;SDS011;7749;49.964;7.890;2023-07-02T04:57:43;9.50;;;6.50;;
15295;SDS011;7749;49.964;7.890;2023-07-02T05:00:11;10.83;;;6.73;;
15295;SDS011;7749;49.964;7.890;2023-07-02T05:02:39;12.23;;;6.87;;
15295;SDS011;7749;49.964;7.890;2023-07-02T05:05:07;10.63;;;6.73;;
15295;SDS011;7749;49.964;7.890;2023-07-02T05:07:36;10.93;;;6.77;;
15295;SDS011;7749;49.964;7.890;2023-07-02T05:10:03;11.03;;;6.60;;
15295;SDS011;7749;49.964;7.890;2023-07-02T05:12:32;11.40;;;6.47;;
15295;SDS011;7749;49.964;7.890;2023-07-02T05:14:59;12.23;;;7.05;;
15295;SDS011;7749;49.964;7.890;2023-07-02T05:17:27;11.70;;;6.43;;
15295;SDS011;7749;49.964;7.890;2023-07-02T05:19:54;12.50;;;7.07;;
15295;SDS011;7749;49.964;7.890;2023-07-02T05:22:23;12.70;;;6.90;;
15295;SDS011;7749;49.964;7.890;2023-07-02T05:24:51;9.03;;;6.33;;
15295;SDS011;7749;49.964;7.890;2023-07-02T05:27:18;12.53;;;6.70;;
15295;SDS011;7749;49.964;7.890;2023-07-02T05:29:45;12.60;;;7.27;;
15295;SDS011;7749;49.964;7.890;2023-07-02T05:32:13;10.30;;;6.77;;
15295;SDS011;7749;49.964;7.890;2023-07-02T05:34:40;12.15;;;6.88;;
15295;SDS011;7749;49.964;7.890;2023-07-02T05:37:08;12.07;;;7.50;;
15295;SDS011;7749;49.964;7.890;2023-07-02T05:39:35;14.93;;;7.72;;
15295;SDS011;7749;49.964;7.890;2023-07-02T05:42:03;11.02;;;7.15;;
15295;SDS011;7749;49.964;7.890;2023-07-02T05:44:31;12.77;;;7.80;;
15295;SDS011;7749;49.964;7.890;2023-07-02T05:47:04;13.45;;;9.15;;
15295;SDS011;7749;49.964;7.890;2023-07-02T05:49:37;11.35;;;8.40;;
15295;SDS011;7749;49.964;7.890;2023-07-02T05:52:05;12.85;;;8.52;;
15295;SDS011;7749;49.964;7.890;2023-07-02T05:54:40;12.18;;;8.10;;
15295;SDS011;7749;49.964;7.890;2023-07-02T05:57:08;15.85;;;10.35;;
15295;SDS011;7749;49.964;7.890;2023-07-02T05:59:40;16.25;;;10.48;;
15295;SDS011;7749;49.964;7.890;2023-07-02T06:02:11;16.70;;;10.50;;
15295;SDS011;7749;49.964;7.890;2023-07-02T06:04:44;15.60;;;11.00;;
15295;SDS011;7749;49.964;7.890;2023-07-02T06:07:16;16.07;;;10.87;;
15295;SDS011;7749;49.964;7.890;2023-07-02T06:09:43;14.77;;;10.75;;
15295;SDS011;7749;49.964;7.890;2023-07-02T06:12:11;17.63;;;11.37;;
15295;SDS011;7749;49.964;7.890;2023-07-02T06:14:38;17.73;;;11.50;;
15295;SDS011;7749;49.964;7.890;2023-07-02T06:17:10;17.77;;;11.57;;
15295;SDS011;7749;49.964;7.890;2023-07-02T06:19:38;16.43;;;11.40;;
15295;SDS011;7749;49.964;7.890;2023-07-02T06:22:21;15.67;;;10.77;;
15295;SDS011;7749;49.964;7.890;2023-07-02T06:24:52;18.13;;;11.80;;
15295;SDS011;7749;49.964;7.890;2023-07-02T06:27:26;16.98;;;11.63;;
15295;SDS011;7749;49.964;7.890;2023-07-02T06:29:58;15.95;;;10.60;;
15295;SDS011;7749;49.964;7.890;2023-07-02T06:32:27;19.13;;;11.27;;
15295;SDS011;7749;49.964;7.890;2023-07-02T06:34:56;16.30;;;11.23;;
15295;SDS011;7749;49.964;7.890;2023-07-02T06:37:24;15.30;;;10.93;;
15295;SDS011;7749;49.964;7.890;2023-07-02T06:39:55;17.52;;;12.02;;
15295;SDS011;7749;49.964;7.890;2023-07-02T06:42:24;16.25;;;11.13;;
15295;SDS011;7749;49.964;7.890;2023-07-02T06:44:55;15.55;;;11.10;;
15295;SDS011;7749;49.964;7.890;2023-07-02T06:47:22;17.75;;;10.85;;
15295;SDS011;7749;49.964;7.890;2023-07-02T06:49:51;18.77;;;11.30;;
15295;SDS011;7749;49.964;7.890;2023-07-02T06:52:22;18.00;;;11.15;;
15295;SDS011;7749;49.964;7.890;2023-07-02T06:55:25;16.67;;;11.05;;
15295;SDS011;7749;49.964;7.890;2023-07-02T06:58:28;18.85;;;11.88;;
15295;SDS011;7749;49.964;7.890;2023-07-02T07:01:37;16.33;;;11.05;;
15295;SDS011;7749;49.964;7.890;2023-07-02T07:04:36;16.30;;;11.85;;
15295;SDS011;7749;49.964;7.890;2023-07-02T07:10:49;22.35;;;11.70;;
15295;SDS011;7749;49.964;7.890;2023-07-02T07:17:07;16.35;;;10.95;;
15295;SDS011;7749;49.964;7.890;2023-07-02T07:19:50;16.98;;;11.02;;
15295;SDS011;7749;49.964;7.890;2023-07-02T07:22:45;14.20;;;10.90;;
15295;SDS011;7749;49.964;7.890;2023-07-02T07:25:27;16.92;;;11.15;;
15295;SDS011;7749;49.964;7.890;2023-07-02T07:28:00;16.40;;;10.50;;
15295;SDS011;7749;49.964;7.890;2023-07-02T07:30:27;19.20;;;11.52;;
15295;SDS011;7749;49.964;7.890;2023-07-02T07:32:58;14.30;;;10.60;;
15295;SDS011;7749;49.964;7.890;2023-07-02T07:35:30;15.48;;;10.45;;
15295;SDS011;7749;49.964;7.890;2023-07-02T07:38:06;14.95;;;10.13;;
15295;SDS011;7749;49.964;7.890;2023-07-02T07:40:34;13.90;;;9.63;;
15295;SDS011;7749;49.964;7.890;2023-07-02T07:43:11;15.57;;;9.77;;
15295;SDS011;7749;49.964;7.890;2023-07-02T07:45:44;14.50;;;9.18;;
15295;SDS011;7749;49.964;7.890;2023-07-02T07:48:15;14.00;;;10.15;;
15295;SDS011;7749;49.964;7.890;2023-07-02T07:50:48;14.73;;;9.95;;
15295;SDS011;7749;49.964;7.890;2023-07-02T07:53:18;15.20;;;9.65;;
15295;SDS011;7749;49.964;7.890;2023-07-02T07:55:53;13.93;;;9.88;;
15295;SDS011;7749;49.964;7.890;2023-07-02T07:58:23;17.38;;;10.75;;
15295;SDS011;7749;49.964;7.890;2023-07-02T08:00:56;16.83;;;11.10;;
15295;SDS011;7749;49.964;7.890;2023-07-02T08:03:29;12.52;;;9.50;;
15295;SDS011;7749;49.964;7.890;2023-07-02T08:06:01;13.60;;;9.93;;
15295;SDS011;7749;49.964;7.890;2023-07-02T08:08:36;17.42;;;10.73;;
15295;SDS011;7749;49.964;7.890;2023-07-02T08:11:07;16.92;;;10.85;;
15295;SDS011;7749;49.964;7.890;2023-07-02T08:13:39;15.27;;;10.85;;
15295;SDS011;7749;49.964;7.890;2023-07-02T08:16:16;17.75;;;11.40;;
15295;SDS011;7749;49.964;7.890;2023-07-02T08:18:44;15.02;;;11.13;;
15295;SDS011;7749;49.964;7.890;2023-07-02T08:21:12;16.33;;;11.43;;
15295;SDS011;7749;49.964;7.890;2023-07-02T08:23:42;13.70;;;9.93;;
15295;SDS011;7749;49.964;7.890;2023-07-02T08:26:12;16.95;;;11.05;;
15295;SDS011;7749;49.964;7.890;2023-07-02T08:28:43;16.65;;;10.15;;
15295;SDS011;7749;49.964;7.890;2023-07-02T08:31:16;18.35;;;11.45;;
15295;SDS011;7749;49.964;7.890;2023-07-02T08:33:46;15.73;;;10.13;;
15295;SDS011;7749;49.964;7.890;2023-07-02T08:36:14;16.73;;;11.48;;
15295;SDS011;7749;49.964;7.890;2023-07-02T08:38:44;13.82;;;10.85;;
15295;SDS011;7749;49.964;7.890;2023-07-02T08:41:12;16.35;;;10.77;;
15295;SDS011;7749;49.964;7.890;2023-07-02T08:43:40;13.60;;;10.05;;
15295;SDS011;7749;49.964;7.890;2023-07-02T08:46:11;13.70;;;10.60;;
15295;SDS011;7749;49.964;7.890;2023-07-02T08:48:47;13.25;;;9.60;;
15295;SDS011;7749;49.964;7.890;2023-07-02T08:51:17;13.18;;;9.82;;
15295;SDS011;7749;49.964;7.890;2023-07-02T08:53:47;16.92;;;10.18;;
15295;SDS011;7749;49.964;7.890;2023-07-02T08:56:18;18.00;;;11.50;;
15295;SDS011;7749;49.964;7.890;2023-07-02T08:58:51;16.13;;;10.82;;
15295;SDS011;7749;49.964;7.890;2023-07-02T09:01:19;18.73;;;11.25;;
15295;SDS011;7749;49.964;7.890;2023-07-02T09:03:48;17.17;;;11.77;;
15295;SDS011;7749;49.964;7.890;2023-07-02T09:06:19;13.93;;;10.95;;
15295;SDS011;7749;49.964;7.890;2023-07-02T09:08:47;17.08;;;11.18;;
15295;SDS011;7749;49.964;7.890;2023-07-02T09:11:18;18.38;;;11.93;;
15295;SDS011;7749;49.964;7.890;2023-07-02T09:14:00;14.00;;;10.77;;
15295;SDS011;7749;49.964;7.890;2023-07-02T09:16:31;16.33;;;11.35;;
15295;SDS011;7749;49.964;7.890;2023-07-02T09:19:07;15.77;;;11.27;;
15295;SDS011;7749;49.964;7.890;2023-07-02T09:26:48;17.23;;;10.68;;
15295;SDS011;7749;49.964;7.890;2023-07-02T09:29:24;15.52;;;10.18;;
15295;SDS011;7749;49.964;7.890;2023-07-02T09:31:54;13.65;;;9.73;;
15295;SDS011;7749;49.964;7.890;2023-07-02T09:34:37;16.80;;;10.70;;
15295;SDS011;7749;49.964;7.890;2023-07-02T09:37:12;14.13;;;10.85;;
15295;SDS011;7749;49.964;7.890;2023-07-02T09:39:43;15.00;;;9.57;;
15295;SDS011;7749;49.964;7.890;2023-07-02T09:42:10;12.25;;;9.48;;
15295;SDS011;7749;49.964;7.890;2023-07-02T09:44:38;13.32;;;9.98;;
15295;SDS011;7749;49.964;7.890;2023-07-02T09:47:10;12.50;;;9.98;;
15295;SDS011;7749;49.964;7.890;2023-07-02T09:49:39;12.57;;;9.90;;
15295;SDS011;7749;49.964;7.890;2023-07-02T09:52:37;13.85;;;10.00;;
15295;SDS011;7749;49.964;7.890;2023-07-02T09:55:08;14.27;;;10.00;;
15295;SDS011;7749;49.964;7.890;2023-07-02T09:57:37;11.77;;;9.10;;
15295;SDS011;7749;49.964;7.890;2023-07-02T10:00:12;11.82;;;9.13;;
15295;SDS011;7749;49.964;7.890;2023-07-02T10:02:50;13.45;;;10.05;;
15295;SDS011;7749;49.964;7.890;2023-07-02T10:05:27;15.13;;;9.63;;
15295;SDS011;7749;49.964;7.890;2023-07-02T10:08:11;14.85;;;10.05;;
15295;SDS011;7749;49.964;7.890;2023-07-02T10:10:44;14.82;;;10.80;;
15295;SDS011;7749;49.964;7.890;2023-07-02T10:13:13;13.73;;;10.90;;
15295;SDS011;7749;49.964;7.890;2023-07-02T10:15:43;18.83;;;11.77;;
15295;SDS011;7749;49.964;7.890;2023-07-02T10:18:11;16.02;;;11.27;;
15295;SDS011;7749;49.964;7.890;2023-07-02T10:20:40;16.52;;;11.38;;
15295;SDS011;7749;49.964;7.890;2023-07-02T10:23:09;15.05;;;11.35;;
15295;SDS011;7749;49.964;7.890;2023-07-02T10:25:37;12.82;;;10.75;;
15295;SDS011;7749;49.964;7.890;2023-07-02T10:28:19;17.65;;;11.48;;
15295;SDS011;7749;49.964;7.890;2023-07-02T10:31:00;16.25;;;10.88;;
15295;SDS011;7749;49.964;7.890;2023-07-02T10:33:28;14.85;;;10.75;;
15295;SDS011;7749;49.964;7.890;2023-07-02T10:35:55;16.80;;;11.23;;
15295;SDS011;7749;49.964;7.890;2023-07-02T10:38:24;13.32;;;11.23;;
15295;SDS011;7749;49.964;7.890;2023-07-02T10:40:56;15.93;;;11.02;;
15295;SDS011;7749;49.964;7.890;2023-07-02T10:43:27;14.52;;;10.95;;
15295;SDS011;7749;49.964;7.890;2023-07-02T10:46:00;17.60;;;11.15;;
15295;SDS011;7749;49.964;7.890;2023-07-02T10:48:28;16.50;;;11.45;;
15295;SDS011;7749;49.964;7.890;2023-07-02T10:50:57;14.07;;;10.88;;
15295;SDS011;7749;49.964;7.890;2023-07-02T10:53:24;14.38;;;10.63;;
15295;SDS011;7749;49.964;7.890;2023-07-02T10:55:54;16.15;;;10.60;;
15295;SDS011;7749;49.964;7.890;2023-07-02T10:58:23;15.77;;;10.90;;
15295;SDS011;7749;49.964;7.890;2023-07-02T11:00:51;13.15;;;10.25;;
15295;SDS011;7749;49.964;7.890;2023-07-02T11:03:23;15.73;;;10.48;;
15295;SDS011;7749;49.964;7.890;2023-07-02T11:05:51;18.10;;;10.35;;
15295;SDS011;7749;49.964;7.890;2023-07-02T11:08:20;17.10;;;11.05;;
15295;SDS011;7749;49.964;7.890;2023-07-02T11:10:50;13.20;;;9.55;;
15295;SDS011;7749;49.964;7.890;2023-07-02T11:13:29;13.32;;;10.25;;
15295;SDS011;7749;49.964;7.890;2023-07-02T11:15:57;13.93;;;9.60;;
15295;SDS011;7749;49.964;7.890;2023-07-02T11:18:29;12.10;;;8.98;;
15295;SDS011;7749;49.964;7.890;2023-07-02T11:20:58;14.13;;;8.60;;
15295;SDS011;7749;49.964;7.890;2023-07-02T11:23:37;12.85;;;9.75;;
15295;SDS011;7749;49.964;7.890;2023-07-02T11:26:04;12.38;;;9.75;;
15295;SDS011;7749;49.964;7.890;2023-07-02T11:28:32;11.95;;;9.35;;
15295;SDS011;7749;49.964;7.890;2023-07-02T11:31:04;12.45;;;9.65;;
15295;SDS011;7749;49.964;7.890;2023-07-02T11:36:02;12.38;;;9.75;;
15295;SDS011;7749;49.964;7.890;2023-07-02T11:38:32;12.32;;;9.93;;
15295;SDS011;7749;49.964;7.890;2023-07-02T11:41:02;14.13;;;10.80;;
15295;SDS011;7749;49.964;7.890;2023-07-02T11:43:30;14.82;;;11.05;;
15295;SDS011;7749;49.964;7.890;2023-07-02T11:45:58;16.15;;;11.30;;
15295;SDS011;7749;49.964;7.890;2023-07-02T11:48:26;15.57;;;10.35;;
15295;SDS011;7749;49.964;7.890;2023-07-02T11:50:54;17.35;;;11.80;;
15295;SDS011;7749;49.964;7.890;2023-07-02T11:53:21;18.02;;;10.90;;
15295;SDS011;7749;49.964;7.890;2023-07-02T11:55:49;15.05;;;11.02;;
15295;SDS011;7749;49.964;7.890;2023-07-02T11:58:16;14.82;;;10.73;;
15295;SDS011;7749;49.964;7.890;2023-07-02T12:00:44;15.50;;;10.85;;
15295;SDS011;7749;49.964;7.890;2023-07-02T12:03:11;13.77;;;10.57;;
15295;SDS011;7749;49.964;7.890;2023-07-02T12:05:39;14.02;;;11.40;;
15295;SDS011;7749;49.964;7.890;2023-07-02T12:08:07;17.80;;;10.88;;
15295;SDS011;7749;49.964;7.890;2023-07-02T12:10:35;14.18;;;11.15;;
15295;SDS011;7749;49.964;7.890;2023-07-02T12:13:05;14.38;;;11.05;;
15295;SDS011;7749;49.964;7.890;2023-07-02T12:15:32;12.85;;;10.90;;
15295;SDS011;7749;49.964;7.890;2023-07-02T12:17:59;12.23;;;10.45;;
15295;SDS011;7749;49.964;7.890;2023-07-02T12:20:27;13.98;;;11.13;;
15295;SDS011;7749;49.964;7.890;2023-07-02T12:22:54;14.93;;;11.48;;
15295;SDS011;7749;49.964;7.890;2023-07-02T12:25:27;14.48;;;11.75;;
15295;SDS011;7749;49.964;7.890;2023-07-02T12:28:08;16.40;;;11.60;;
15295;SDS011;7749;49.964;7.890;2023-07-02T12:30:39;15.95;;;12.27;;
15295;SDS011;7749;49.964;7.890;2023-07-02T12:33:06;15.00;;;11.38;;
15295;SDS011;7749;49.964;7.890;2023-07-02T12:35:34;15.25;;;12.13;;
15295;SDS011;7749;49.964;7.890;2023-07-02T12:38:01;13.00;;;11.07;;
15295;SDS011;7749;49.964;7.890;2023-07-02T12:40:32;12.98;;;11.10;;
15295;SDS011;7749;49.964;7.890;2023-07-02T12:42:59;14.38;;;11.88;;
15295;SDS011;7749;49.964;7.890;2023-07-02T12:45:27;15.00;;;11.45;;
15295;SDS011;7749;49.964;7.890;2023-07-02T12:47:54;15.05;;;11.60;;
15295;SDS011;7749;49.964;7.890;2023-07-02T12:50:22;18.05;;;11.77;;
15295;SDS011;7749;49.964;7.890;2023-07-02T12:52:49;13.18;;;10.75;;
15295;SDS011;7749;49.964;7.890;2023-07-02T12:55:17;14.75;;;11.30;;
15295;SDS011;7749;49.964;7.890;2023-07-02T12:57:44;15.48;;;12.30;;
15295;SDS011;7749;49.964;7.890;2023-07-02T13:00:11;15.50;;;11.15;;
15295;SDS011;7749;49.964;7.890;2023-07-02T13:02:39;13.05;;;11.55;;
15295;SDS011;7749;49.964;7.890;2023-07-02T13:05:27;14.82;;;11.07;;
15295;SDS011;7749;49.964;7.890;2023-07-02T13:07:55;17.90;;;12.45;;
15295;SDS011;7749;49.964;7.890;2023-07-02T13:10:32;15.65;;;11.75;;
15295;SDS011;7749;49.964;7.890;2023-07-02T13:13:03;14.35;;;11.57;;
15295;SDS011;7749;49.964;7.890;2023-07-02T13:15:48;16.38;;;12.10;;
15295;SDS011;7749;49.964;7.890;2023-07-02T13:18:16;13.25;;;10.98;;
15295;SDS011;7749;49.964;7.890;2023-07-02T13:20:43;17.20;;;12.10;;
15295;SDS011;7749;49.964;7.890;2023-07-02T13:23:11;14.70;;;11.35;;
15295;SDS011;7749;49.964;7.890;2023-07-02T13:25:38;14.70;;;11.38;;
15295;SDS011;7749;49.964;7.890;2023-07-02T13:28:06;14.88;;;11.75;;
15295;SDS011;7749;49.964;7.890;2023-07-02T13:30:34;14.05;;;11.50;;
15295;SDS011;7749;49.964;7.890;2023-07-02T13:33:02;14.27;;;11.60;;
15295;SDS011;7749;49.964;7.890;2023-07-02T13:35:30;13.68;;;10.38;;
15295;SDS011;7749;49.964;7.890;2023-07-02T13:37:58;13.95;;;11.43;;
15295;SDS011;7749;49.964;7.890;2023-07-02T13:40:31;15.80;;;10.90;;
15295;SDS011;7749;49.964;7.890;2023-07-02T13:42:58;14.00;;;10.97;;
15295;SDS011;7749;49.964;7.890;2023-07-02T13:45:26;13.48;;;11.00;;
15295;SDS011;7749;49.964;7.890;2023-07-02T13:47:55;16.38;;;11.27;;
15295;SDS011;7749;49.964;7.890;2023-07-02T13:50:24;15.15;;;11.50;;
15295;SDS011;7749;49.964;7.890;2023-07-02T13:52:51;17.15;;;11.68;;
15295;SDS011;7749;49.964;7.890;2023-07-02T13:55:19;13.82;;;11.40;;
15295;SDS011;7749;49.964;7.890;2023-07-02T13:57:47;15.52;;;10.57;;
15295;SDS011;7749;49.964;7.890;2023-07-02T14:00:15;14.77;;;11.48;;
15295;SDS011;7749;49.964;7.890;2023-07-02T14:02:43;13.23;;;11.13;;
15295;SDS011;7749;49.964;7.890;2023-07-02T14:05:10;12.57;;;11.23;;
15295;SDS011;7749;49.964;7.890;2023-07-02T14:07:38;14.23;;;11.48;;
15295;SDS011;7749;49.964;7.890;2023-07-02T14:10:07;13.85;;;12.23;;
15295;SDS011;7749;49.964;7.890;2023-07-02T14:12:35;14.30;;;12.15;;
15295;SDS011;7749;49.964;7.890;2023-07-02T14:15:07;12.73;;;11.20;;
15295;SDS011;7749;49.964;7.890;2023-07-02T14:17:36;14.27;;;11.60;;
15295;SDS011;7749;49.964;7.890;2023-07-02T14:20:04;15.02;;;11.57;;
15295;SDS011;7749;49.964;7.890;2023-07-02T14:22:34;16.92;;;12.10;;
15295;SDS011;7749;49.964;7.890;2023-07-02T14:25:01;16.27;;;11.65;;
15295;SDS011;7749;49.964;7.890;2023-07-02T14:27:29;15.27;;;10.85;;
15295;SDS011;7749;49.964;7.890;2023-07-02T14:29:57;16.25;;;11.77;;
15295;SDS011;7749;49.964;7.890;2023-07-02T14:32:25;14.20;;;11.27;;
15295;SDS011;7749;49.964;7.890;2023-07-02T14:34:53;13.07;;;11.70;;
15295;SDS011;7749;49.964;7.890;2023-07-02T14:37:21;13.27;;;11.15;;
15295;SDS011;7749;49.964;7.890;2023-07-02T14:39:48;14.20;;;11.15;;
15295;SDS011;7749;49.964;7.890;2023-07-02T14:42:32;15.23;;;10.68;;
15295;SDS011;7749;49.964;7.890;2023-07-02T14:45:00;14.57;;;11.02;;
15295;SDS011;7749;49.964;7.890;2023-07-02T14:47:27;16.33;;;11.73;;
15295;SDS011;7749;49.964;7.890;2023-07-02T14:49:55;13.05;;;11.63;;
15295;SDS011;7749;49.964;7.890;2023-07-02T14:52:22;15.13;;;11.95;;
15295;SDS011;7749;49.964;7.890;2023-07-02T14:54:50;15.40;;;11.00;;
15295;SDS011;7749;49.964;7.890;2023-07-02T14:57:17;14.07;;;11.38;;
15295;SDS011;7749;49.964;7.890;2023-07-02T14:59:46;14.55;;;10.68;;
15295;SDS011;7749;49.964;7.890;2023-07-02T15:02:14;13.43;;;10.68;;
15295;SDS011;7749;49.964;7.890;2023-07-02T15:04:42;12.63;;;10.88;;
15295;SDS011;7749;49.964;7.890;2023-07-02T15:07:09;13.70;;;11.15;;
15295;SDS011;7749;49.964;7.890;2023-07-02T15:09:37;15.38;;;11.10;;
15295;SDS011;7749;49.964;7.890;2023-07-02T15:12:05;16.00;;;11.75;;
15295;SDS011;7749;49.964;7.890;2023-07-02T15:14:32;15.45;;;11.07;;